sensor_id;sensor_type;location;lat;lon;timestamp;pressure;altitude;pressure_sealevel;temperature;humidity
50364;BME280;36272;59.400;17.982;2023-04-06T00:00:23;102361.44;;;0.85;88.78
50364;BME280;36272;59.400;17.982;2023-04-06T00:05:25;102358.19;;;0.81;88.66
50364;BME280;36272;59.400;17.982;2023-04-06T00:10:26;102377.72;;;0.79;88.42
50364;BME280;36272;59.400;17.982;2023-04-06T00:15:28;102373.00;;;0.71;88.49
50364;BME280;36272;59.400;17.982;2023-04-06T00:20:30;102370.72;;;0.66;88.36
50364;BME280;36272;59.400;17.982;2023-04-06T00:25:32;102376.44;;;0.60;88.12
50364;BME280;36272;59.400;17.982;2023-04-06T00:30:33;102374.91;;;0.57;88.17
50364;BME280;36272;59.400;17.982;2023-04-06T00:35:35;102382.06;;;0.55;88.18
50364;BME280;36272;59.400;17.982;2023-04-06T00:40:37;102373.31;;;0.55;88.19
50364;BME280;36272;59.400;17.982;2023-04-06T00:45:41;102375.97;;;0.55;88.15
50364;BME280;36272;59.400;17.982;2023-04-06T00:50:43;102379.66;;;0.52;87.93
50364;BME280;36272;59.400;17.982;2023-04-06T00:55:45;102381.81;;;0.47;88.03
50364;BME280;36272;59.400;17.982;2023-04-06T01:00:47;102374.84;;;0.46;87.92
50364;BME280;36272;59.400;17.982;2023-04-06T01:05:49;102384.88;;;0.41;87.76
50364;BME280;36272;59.400;17.982;2023-04-06T01:10:53;102381.88;;;0.34;87.72
50364;BME280;36272;59.400;17.982;2023-04-06T01:15:55;102376.22;;;0.27;87.68
50364;BME280;36272;59.400;17.982;2023-04-06T01:20:57;102383.38;;;0.25;87.64
50364;BME280;36272;59.400;17.982;2023-04-06T01:25:59;102377.38;;;0.23;87.76
50364;BME280;36272;59.400;17.982;2023-04-06T01:31:01;102379.06;;;0.24;87.75
50364;BME280;36272;59.400;17.982;2023-04-06T01:36:03;102385.06;;;0.26;87.73
50364;BME280;36272;59.400;17.982;2023-04-06T01:41:05;102377.91;;;0.28;87.72
50364;BME280;36272;59.400;17.982;2023-04-06T01:46:07;102386.69;;;0.40;88.00
50364;BME280;36272;59.400;17.982;2023-04-06T01:51:09;102387.44;;;0.54;88.19
50364;BME280;36272;59.400;17.982;2023-04-06T01:56:10;102386.41;;;0.68;88.62
50364;BME280;36272;59.400;17.982;2023-04-06T02:01:17;102388.59;;;0.85;88.89
50364;BME280;36272;59.400;17.982;2023-04-06T02:06:19;102389.22;;;1.00;89.01
50364;BME280;36272;59.400;17.982;2023-04-06T02:11:21;102390.78;;;1.14;89.22
50364;BME280;36272;59.400;17.982;2023-04-06T02:16:22;102385.28;;;1.29;89.19
50364;BME280;36272;59.400;17.982;2023-04-06T02:21:24;102382.91;;;1.37;89.41
50364;BME280;36272;59.400;17.982;2023-04-06T02:26:26;102395.25;;;1.48;89.49
50364;BME280;36272;59.400;17.982;2023-04-06T02:31:28;102398.94;;;1.57;89.68
50364;BME280;36272;59.400;17.982;2023-04-06T02:36:29;102382.53;;;1.65;89.80
50364;BME280;36272;59.400;17.982;2023-04-06T02:41:31;102384.69;;;1.71;89.72
50364;BME280;36272;59.400;17.982;2023-04-06T02:46:33;102385.16;;;1.76;90.04
50364;BME280;36272;59.400;17.982;2023-04-06T02:51:35;102396.28;;;1.80;90.09
50364;BME280;36272;59.400;17.982;2023-04-06T02:56:36;102396.75;;;1.85;90.13
50364;BME280;36272;59.400;17.982;2023-04-06T03:01:38;102401.78;;;1.88;90.13
50364;BME280;36272;59.400;17.982;2023-04-06T03:06:40;102401.31;;;1.94;90.22
50364;BME280;36272;59.400;17.982;2023-04-06T03:11:47;102393.16;;;1.97;90.30
50364;BME280;36272;59.400;17.982;2023-04-06T03:16:48;102400.69;;;2.02;90.29
50364;BME280;36272;59.400;17.982;2023-04-06T03:21:53;102406.19;;;2.10;90.26
50364;BME280;36272;59.400;17.982;2023-04-06T03:26:55;102402.56;;;2.11;90.20
50364;BME280;36272;59.400;17.982;2023-04-06T03:31:57;102404.13;;;2.14;90.15
50364;BME280;36272;59.400;17.982;2023-04-06T03:36:59;102410.25;;;2.14;90.43
50364;BME280;36272;59.400;17.982;2023-04-06T03:42:06;102415.28;;;2.17;90.51
50364;BME280;36272;59.400;17.982;2023-04-06T03:47:08;102418.63;;;2.19;90.35
50364;BME280;36272;59.400;17.982;2023-04-06T03:52:09;102425.47;;;2.22;90.43
50364;BME280;36272;59.400;17.982;2023-04-06T03:57:11;102423.63;;;2.22;90.58
50364;BME280;36272;59.400;17.982;2023-04-06T04:02:13;102424.50;;;2.23;90.51
50364;BME280;36272;59.400;17.982;2023-04-06T04:07:15;102430.50;;;2.25;90.72
50364;BME280;36272;59.400;17.982;2023-04-06T04:12:16;102429.28;;;2.29;90.60
50364;BME280;36272;59.400;17.982;2023-04-06T04:17:18;102440.81;;;2.28;90.81
50364;BME280;36272;59.400;17.982;2023-04-06T04:22:20;102436.25;;;2.30;90.74
50364;BME280;36272;59.400;17.982;2023-04-06T04:27:22;102440.56;;;2.31;90.79
50364;BME280;36272;59.400;17.982;2023-04-06T04:32:23;102439.94;;;2.39;90.73
50364;BME280;36272;59.400;17.982;2023-04-06T04:37:28;102443.84;;;2.45;90.79
50364;BME280;36272;59.400;17.982;2023-04-06T04:42:30;102450.81;;;2.46;90.79
50364;BME280;36272;59.400;17.982;2023-04-06T04:47:31;102454.16;;;2.48;90.78
50364;BME280;36272;59.400;17.982;2023-04-06T04:52:33;102455.75;;;2.50;90.67
50364;BME280;36272;59.400;17.982;2023-04-06T04:57:35;102454.53;;;2.55;90.97
50364;BME280;36272;59.400;17.982;2023-04-06T05:02:37;102468.06;;;2.61;90.63
50364;BME280;36272;59.400;17.982;2023-04-06T05:07:38;102471.16;;;2.66;90.68
50364;BME280;36272;59.400;17.982;2023-04-06T05:12:43;102462.72;;;2.73;90.40
50364;BME280;36272;59.400;17.982;2023-04-06T05:17:45;102461.06;;;2.72;90.26
50364;BME280;36272;59.400;17.982;2023-04-06T05:22:47;102468.03;;;2.73;90.61
50364;BME280;36272;59.400;17.982;2023-04-06T05:27:48;102478.19;;;2.77;90.59
50364;BME280;36272;59.400;17.982;2023-04-06T05:32:50;102463.13;;;2.89;90.57
50364;BME280;36272;59.400;17.982;2023-04-06T05:37:52;102469.56;;;2.96;90.40
50364;BME280;36272;59.400;17.982;2023-04-06T05:42:54;102466.28;;;3.04;90.30
50364;BME280;36272;59.400;17.982;2023-04-06T05:47:56;102475.38;;;3.11;90.33
50364;BME280;36272;59.400;17.982;2023-04-06T05:53:03;102471.13;;;3.20;90.31
50364;BME280;36272;59.400;17.982;2023-04-06T05:58:05;102486.91;;;3.32;90.17
50364;BME280;36272;59.400;17.982;2023-04-06T06:03:06;102498.13;;;3.45;89.94
50364;BME280;36272;59.400;17.982;2023-04-06T06:08:09;102493.28;;;3.50;90.04
50364;BME280;36272;59.400;17.982;2023-04-06T06:13:11;102493.66;;;3.67;89.76
50364;BME280;36272;59.400;17.982;2023-04-06T06:18:13;102497.16;;;3.77;89.69
50364;BME280;36272;59.400;17.982;2023-04-06T06:23:15;102498.72;;;3.90;89.58
50364;BME280;36272;59.400;17.982;2023-04-06T06:28:16;102496.81;;;4.01;89.14
50364;BME280;36272;59.400;17.982;2023-04-06T06:33:18;102500.47;;;4.10;89.55
50364;BME280;36272;59.400;17.982;2023-04-06T06:38:20;102499.25;;;4.24;89.13
50364;BME280;36272;59.400;17.982;2023-04-06T06:43:22;102511.69;;;4.34;88.77
50364;BME280;36272;59.400;17.982;2023-04-06T06:48:24;102509.75;;;4.45;88.46
50364;BME280;36272;59.400;17.982;2023-04-06T06:53:29;102503.06;;;4.61;88.31
50364;BME280;36272;59.400;17.982;2023-04-06T06:58:31;102512.25;;;4.76;87.99
50364;BME280;36272;59.400;17.982;2023-04-06T07:03:32;102519.81;;;4.91;87.67
50364;BME280;36272;59.400;17.982;2023-04-06T07:08:34;102518.00;;;5.01;87.65
50364;BME280;36272;59.400;17.982;2023-04-06T07:13:36;102514.88;;;5.16;87.45
50364;BME280;36272;59.400;17.982;2023-04-06T07:18:37;102507.63;;;5.28;87.39
50364;BME280;36272;59.400;17.982;2023-04-06T07:23:39;102515.41;;;5.49;86.99
50364;BME280;36272;59.400;17.982;2023-04-06T07:28:41;102522.75;;;5.65;86.87
50364;BME280;36272;59.400;17.982;2023-04-06T07:33:43;102524.63;;;5.83;86.38
50364;BME280;36272;59.400;17.982;2023-04-06T07:38:44;102521.75;;;6.04;85.81
50364;BME280;36272;59.400;17.982;2023-04-06T07:43:47;102514.66;;;6.22;85.57
50364;BME280;36272;59.400;17.982;2023-04-06T07:48:49;102524.25;;;6.33;84.96
50364;BME280;36272;59.400;17.982;2023-04-06T07:53:51;102524.03;;;6.45;84.98
50364;BME280;36272;59.400;17.982;2023-04-06T07:58:53;102526.50;;;6.56;84.99
50364;BME280;36272;59.400;17.982;2023-04-06T08:03:57;102521.00;;;6.76;84.77
50364;BME280;36272;59.400;17.982;2023-04-06T08:09:00;102532.31;;;6.96;84.34
50364;BME280;36272;59.400;17.982;2023-04-06T08:14:01;102534.44;;;7.10;83.85
50364;BME280;36272;59.400;17.982;2023-04-06T08:19:03;102537.78;;;7.12;83.53
50364;BME280;36272;59.400;17.982;2023-04-06T08:24:06;102531.00;;;7.18;82.51
50364;BME280;36272;59.400;17.982;2023-04-06T08:29:08;102537.56;;;7.32;82.44
50364;BME280;36272;59.400;17.982;2023-04-06T08:34:09;102545.88;;;7.29;81.73
50364;BME280;36272;59.400;17.982;2023-04-06T08:39:11;102547.03;;;7.26;82.30
50364;BME280;36272;59.400;17.982;2023-04-06T08:44:13;102547.22;;;7.33;82.19
50364;BME280;36272;59.400;17.982;2023-04-06T08:49:20;102529.66;;;7.40;81.71
50364;BME280;36272;59.400;17.982;2023-04-06T08:54:22;102541.09;;;7.59;80.51
50364;BME280;36272;59.400;17.982;2023-04-06T08:59:25;102526.84;;;7.77;80.27
50364;BME280;36272;59.400;17.982;2023-04-06T09:04:27;102535.41;;;7.88;78.14
50364;BME280;36272;59.400;17.982;2023-04-06T09:09:28;102535.91;;;7.92;77.15
50364;BME280;36272;59.400;17.982;2023-04-06T09:14:37;102526.78;;;7.95;76.85
50364;BME280;36272;59.400;17.982;2023-04-06T09:19:46;102512.19;;;8.15;78.18
50364;BME280;36272;59.400;17.982;2023-04-06T09:24:49;102523.72;;;8.32;77.09
50364;BME280;36272;59.400;17.982;2023-04-06T09:30:06;102521.44;;;8.46;75.95
50364;BME280;36272;59.400;17.982;2023-04-06T09:35:08;102522.97;;;8.48;77.55
50364;BME280;36272;59.400;17.982;2023-04-06T09:40:13;102528.50;;;8.55;76.89
50364;BME280;36272;59.400;17.982;2023-04-06T09:45:15;102524.50;;;8.76;77.38
50364;BME280;36272;59.400;17.982;2023-04-06T09:50:18;102512.66;;;8.87;75.83
50364;BME280;36272;59.400;17.982;2023-04-06T09:55:30;102520.31;;;9.06;75.79
50364;BME280;36272;59.400;17.982;2023-04-06T10:00:47;102516.78;;;9.31;75.62
50364;BME280;36272;59.400;17.982;2023-04-06T10:05:54;102509.69;;;9.71;73.90
50364;BME280;36272;59.400;17.982;2023-04-06T10:11:00;102527.59;;;10.02;72.72
50364;BME280;36272;59.400;17.982;2023-04-06T10:16:02;102522.06;;;10.04;70.92
50364;BME280;36272;59.400;17.982;2023-04-06T10:21:14;102520.72;;;10.08;71.03
50364;BME280;36272;59.400;17.982;2023-04-06T10:26:20;102522.13;;;10.27;70.52
50364;BME280;36272;59.400;17.982;2023-04-06T10:31:26;102518.00;;;10.48;70.56
50364;BME280;36272;59.400;17.982;2023-04-06T10:36:32;102512.53;;;10.64;69.90
50364;BME280;36272;59.400;17.982;2023-04-06T10:41:43;102512.00;;;10.69;70.56
50364;BME280;36272;59.400;17.982;2023-04-06T10:46:54;102507.88;;;11.05;68.33
50364;BME280;36272;59.400;17.982;2023-04-06T10:51:56;102520.00;;;11.30;67.28
50364;BME280;36272;59.400;17.982;2023-04-06T10:56:58;102516.00;;;11.26;67.05
50364;BME280;36272;59.400;17.982;2023-04-06T11:02:05;102518.00;;;11.48;67.20
50364;BME280;36272;59.400;17.982;2023-04-06T11:07:07;102517.34;;;11.60;67.32
50364;BME280;36272;59.400;17.982;2023-04-06T11:12:20;102502.44;;;11.58;66.32
50364;BME280;36272;59.400;17.982;2023-04-06T11:17:26;102507.16;;;11.71;67.35
50364;BME280;36272;59.400;17.982;2023-04-06T11:22:31;102501.66;;;11.94;66.55
50364;BME280;36272;59.400;17.982;2023-04-06T11:27:36;102494.97;;;12.57;64.81
50364;BME280;36272;59.400;17.982;2023-04-06T11:32:42;102486.00;;;13.28;64.28
50364;BME280;36272;59.400;17.982;2023-04-06T11:37:44;102496.50;;;13.51;61.88
50364;BME280;36272;59.400;17.982;2023-04-06T11:42:57;102490.91;;;13.53;61.01
50364;BME280;36272;59.400;17.982;2023-04-06T11:48:00;102496.94;;;13.27;62.45
50364;BME280;36272;59.400;17.982;2023-04-06T11:53:02;102497.88;;;13.12;63.14
50364;BME280;36272;59.400;17.982;2023-04-06T11:58:06;102499.06;;;13.03;63.88
50364;BME280;36272;59.400;17.982;2023-04-06T12:03:08;102494.66;;;13.23;62.46
50364;BME280;36272;59.400;17.982;2023-04-06T12:08:10;102498.19;;;13.59;61.10
50364;BME280;36272;59.400;17.982;2023-04-06T12:13:12;102490.59;;;14.32;60.12
50364;BME280;36272;59.400;17.982;2023-04-06T12:18:13;102486.03;;;14.25;59.48
50364;BME280;36272;59.400;17.982;2023-04-06T12:23:15;102482.84;;;15.56;58.42
50364;BME280;36272;59.400;17.982;2023-04-06T12:28:17;102474.22;;;17.82;54.58
50364;BME280;36272;59.400;17.982;2023-04-06T12:33:19;102468.34;;;19.30;51.90
50364;BME280;36272;59.400;17.982;2023-04-06T12:38:21;102467.53;;;19.17;51.52
50364;BME280;36272;59.400;17.982;2023-04-06T12:43:23;102458.38;;;18.40;53.49
50364;BME280;36272;59.400;17.982;2023-04-06T12:48:24;102464.00;;;17.47;54.00
50364;BME280;36272;59.400;17.982;2023-04-06T12:53:27;102452.56;;;16.89;54.96
50364;BME280;36272;59.400;17.982;2023-04-06T12:58:29;102458.47;;;17.42;53.33
50364;BME280;36272;59.400;17.982;2023-04-06T13:03:33;102450.69;;;16.64;53.48
50364;BME280;36272;59.400;17.982;2023-04-06T13:08:35;102444.78;;;17.00;54.09
50364;BME280;36272;59.400;17.982;2023-04-06T13:13:38;102453.59;;;19.67;50.29
50364;BME280;36272;59.400;17.982;2023-04-06T13:18:40;102445.59;;;23.16;46.18
50364;BME280;36272;59.400;17.982;2023-04-06T13:23:42;102432.72;;;25.39;43.65
50364;BME280;36272;59.400;17.982;2023-04-06T13:28:45;102439.97;;;26.09;43.13
50364;BME280;36272;59.400;17.982;2023-04-06T13:33:46;102432.78;;;25.34;43.33
50364;BME280;36272;59.400;17.982;2023-04-06T13:38:58;102423.19;;;24.40;42.83
50364;BME280;36272;59.400;17.982;2023-04-06T13:44:00;102428.59;;;23.83;43.59
50364;BME280;36272;59.400;17.982;2023-04-06T13:49:14;102411.81;;;22.69;43.72
50364;BME280;36272;59.400;17.982;2023-04-06T13:54:16;102427.88;;;20.84;45.51
50364;BME280;36272;59.400;17.982;2023-04-06T13:59:18;102424.09;;;19.99;45.71
50364;BME280;36272;59.400;17.982;2023-04-06T14:04:20;102419.84;;;19.34;45.91
50364;BME280;36272;59.400;17.982;2023-04-06T14:09:22;102421.81;;;18.97;45.23
50364;BME280;36272;59.400;17.982;2023-04-06T14:14:23;102421.31;;;18.41;46.10
50364;BME280;36272;59.400;17.982;2023-04-06T14:19:30;102400.97;;;17.65;46.94
50364;BME280;36272;59.400;17.982;2023-04-06T14:24:32;102415.84;;;17.56;48.60
50364;BME280;36272;59.400;17.982;2023-04-06T14:29:33;102408.69;;;18.47;48.52
50364;BME280;36272;59.400;17.982;2023-04-06T14:34:37;102391.94;;;19.79;46.93
50364;BME280;36272;59.400;17.982;2023-04-06T14:39:49;102397.19;;;19.98;46.77
50364;BME280;36272;59.400;17.982;2023-04-06T14:44:51;102410.81;;;19.16;47.58
50364;BME280;36272;59.400;17.982;2023-04-06T14:49:55;102402.28;;;18.05;48.24
50364;BME280;36272;59.400;17.982;2023-04-06T14:54:57;102397.31;;;16.85;49.91
50364;BME280;36272;59.400;17.982;2023-04-06T15:00:04;102380.44;;;15.82;50.14
50364;BME280;36272;59.400;17.982;2023-04-06T15:05:09;102396.56;;;15.04;52.24
50364;BME280;36272;59.400;17.982;2023-04-06T15:10:20;102390.38;;;14.43;52.77
50364;BME280;36272;59.400;17.982;2023-04-06T15:15:22;102402.34;;;14.00;54.36
50364;BME280;36272;59.400;17.982;2023-04-06T15:20:24;102405.41;;;13.77;54.56
50364;BME280;36272;59.400;17.982;2023-04-06T15:25:26;102411.97;;;13.26;55.15
50364;BME280;36272;59.400;17.982;2023-04-06T15:30:27;102409.25;;;12.84;56.54
50364;BME280;36272;59.400;17.982;2023-04-06T15:35:29;102405.44;;;12.43;55.94
50364;BME280;36272;59.400;17.982;2023-04-06T15:40:31;102411.44;;;12.01;56.24
50364;BME280;36272;59.400;17.982;2023-04-06T15:45:33;102401.16;;;11.68;57.28
50364;BME280;36272;59.400;17.982;2023-04-06T15:50:40;102397.31;;;11.41;57.74
50364;BME280;36272;59.400;17.982;2023-04-06T15:55:41;102407.97;;;11.19;58.12
50364;BME280;36272;59.400;17.982;2023-04-06T16:00:43;102407.69;;;10.99;58.53
50364;BME280;36272;59.400;17.982;2023-04-06T16:05:45;102391.84;;;10.74;58.51
50364;BME280;36272;59.400;17.982;2023-04-06T16:10:47;102403.56;;;10.58;58.97
50364;BME280;36272;59.400;17.982;2023-04-06T16:15:50;102400.00;;;10.43;58.96
50364;BME280;36272;59.400;17.982;2023-04-06T16:20:52;102399.47;;;10.24;59.19
50364;BME280;36272;59.400;17.982;2023-04-06T16:25:54;102407.94;;;10.04;60.16
50364;BME280;36272;59.400;17.982;2023-04-06T16:30:57;102404.78;;;9.77;60.43
50364;BME280;36272;59.400;17.982;2023-04-06T16:35:59;102396.69;;;9.54;60.85
50364;BME280;36272;59.400;17.982;2023-04-06T16:41:01;102410.66;;;9.33;61.09
50364;BME280;36272;59.400;17.982;2023-04-06T16:46:03;102404.03;;;9.12;60.92
50364;BME280;36272;59.400;17.982;2023-04-06T16:51:06;102395.41;;;8.93;61.41
50364;BME280;36272;59.400;17.982;2023-04-06T16:56:09;102396.09;;;8.79;62.04
50364;BME280;36272;59.400;17.982;2023-04-06T17:06:20;102414.09;;;8.44;62.85
50364;BME280;36272;59.400;17.982;2023-04-06T17:11:22;102421.41;;;8.25;62.99
50364;BME280;36272;59.400;17.982;2023-04-06T17:16:24;102425.22;;;8.14;63.68
50364;BME280;36272;59.400;17.982;2023-04-06T17:21:25;102430.69;;;7.96;63.73
50364;BME280;36272;59.400;17.982;2023-04-06T17:26:27;102434.97;;;7.81;63.96
50364;BME280;36272;59.400;17.982;2023-04-06T17:31:29;102433.75;;;7.67;64.25
50364;BME280;36272;59.400;17.982;2023-04-06T17:36:31;102437.34;;;7.49;64.51
50364;BME280;36272;59.400;17.982;2023-04-06T17:41:38;102437.13;;;7.42;65.20
50364;BME280;36272;59.400;17.982;2023-04-06T17:46:40;102444.53;;;7.22;65.15
50364;BME280;36272;59.400;17.982;2023-04-06T17:51:41;102447.91;;;7.06;65.35
50364;BME280;36272;59.400;17.982;2023-04-06T17:56:43;102446.19;;;6.97;65.53
50364;BME280;36272;59.400;17.982;2023-04-06T18:01:45;102450.94;;;6.85;66.17
50364;BME280;36272;59.400;17.982;2023-04-06T18:06:47;102445.34;;;6.70;66.39
50364;BME280;36272;59.400;17.982;2023-04-06T18:11:48;102445.94;;;6.64;66.65
50364;BME280;36272;59.400;17.982;2023-04-06T18:16:50;102447.53;;;6.57;66.73
50364;BME280;36272;59.400;17.982;2023-04-06T18:21:52;102448.75;;;6.44;67.09
50364;BME280;36272;59.400;17.982;2023-04-06T18:26:53;102457.81;;;6.33;67.29
50364;BME280;36272;59.400;17.982;2023-04-06T18:31:55;102456.28;;;6.31;67.74
50364;BME280;36272;59.400;17.982;2023-04-06T18:36:56;102456.22;;;6.22;67.84
50364;BME280;36272;59.400;17.982;2023-04-06T18:42:00;102465.47;;;6.18;67.81
50364;BME280;36272;59.400;17.982;2023-04-06T18:47:03;102462.72;;;6.10;68.25
50364;BME280;36272;59.400;17.982;2023-04-06T18:52:05;102472.81;;;5.96;68.70
50364;BME280;36272;59.400;17.982;2023-04-06T18:57:06;102469.25;;;5.88;68.89
50364;BME280;36272;59.400;17.982;2023-04-06T19:02:08;102469.59;;;5.75;68.88
50364;BME280;36272;59.400;17.982;2023-04-06T19:07:10;102466.84;;;5.66;69.04
50364;BME280;36272;59.400;17.982;2023-04-06T19:12:11;102472.59;;;5.62;69.50
50364;BME280;36272;59.400;17.982;2023-04-06T19:17:13;102461.56;;;5.57;69.85
50364;BME280;36272;59.400;17.982;2023-04-06T19:22:15;102477.78;;;5.54;69.52
50364;BME280;36272;59.400;17.982;2023-04-06T19:27:17;102473.91;;;5.48;69.60
50364;BME280;36272;59.400;17.982;2023-04-06T19:32:18;102471.81;;;5.42;69.77
50364;BME280;36272;59.400;17.982;2023-04-06T19:37:20;102481.88;;;5.38;70.19
50364;BME280;36272;59.400;17.982;2023-04-06T19:42:22;102479.38;;;5.36;70.44
50364;BME280;36272;59.400;17.982;2023-04-06T19:47:25;102488.44;;;5.34;70.73
50364;BME280;36272;59.400;17.982;2023-04-06T19:52:27;102480.50;;;5.34;70.82
50364;BME280;36272;59.400;17.982;2023-04-06T19:57:28;102491.25;;;5.32;70.86
50364;BME280;36272;59.400;17.982;2023-04-06T20:02:30;102482.88;;;5.27;70.87
50364;BME280;36272;59.400;17.982;2023-04-06T20:07:32;102482.63;;;5.20;71.04
50364;BME280;36272;59.400;17.982;2023-04-06T20:12:33;102473.13;;;5.18;71.13
50364;BME280;36272;59.400;17.982;2023-04-06T20:17:35;102479.97;;;5.11;71.53
50364;BME280;36272;59.400;17.982;2023-04-06T20:22:37;102485.44;;;5.09;71.79
50364;BME280;36272;59.400;17.982;2023-04-06T20:27:38;102480.44;;;5.06;71.64
50364;BME280;36272;59.400;17.982;2023-04-06T20:32:40;102482.25;;;5.05;72.07
50364;BME280;36272;59.400;17.982;2023-04-06T20:37:42;102485.72;;;5.06;71.82
50364;BME280;36272;59.400;17.982;2023-04-06T20:42:44;102475.28;;;5.04;71.56
50364;BME280;36272;59.400;17.982;2023-04-06T20:47:46;102486.56;;;4.97;71.62
50364;BME280;36272;59.400;17.982;2023-04-06T20:52:48;102482.53;;;4.93;71.71
50364;BME280;36272;59.400;17.982;2023-04-06T20:57:49;102480.31;;;4.88;71.90
50364;BME280;36272;59.400;17.982;2023-04-06T21:02:51;102480.75;;;4.83;72.25
50364;BME280;36272;59.400;17.982;2023-04-06T21:07:53;102497.63;;;4.82;72.07
50364;BME280;36272;59.400;17.982;2023-04-06T21:12:55;102485.19;;;4.83;72.11
50364;BME280;36272;59.400;17.982;2023-04-06T21:17:57;102493.59;;;4.78;71.89
50364;BME280;36272;59.400;17.982;2023-04-06T21:22:58;102483.78;;;4.79;72.06
50364;BME280;36272;59.400;17.982;2023-04-06T21:28:00;102480.03;;;4.71;72.09
50364;BME280;36272;59.400;17.982;2023-04-06T21:33:03;102470.97;;;4.64;72.30
50364;BME280;36272;59.400;17.982;2023-04-06T21:38:05;102480.19;;;4.60;72.26
50364;BME280;36272;59.400;17.982;2023-04-06T21:43:07;102484.09;;;4.56;72.37
50364;BME280;36272;59.400;17.982;2023-04-06T21:48:09;102480.03;;;4.52;72.29
50364;BME280;36272;59.400;17.982;2023-04-06T21:53:10;102474.88;;;4.50;72.48
50364;BME280;36272;59.400;17.982;2023-04-06T21:58:13;102470.69;;;4.47;72.64
50364;BME280;36272;59.400;17.982;2023-04-06T22:03:15;102478.38;;;4.51;72.86
50364;BME280;36272;59.400;17.982;2023-04-06T22:08:17;102475.28;;;4.45;72.83
50364;BME280;36272;59.400;17.982;2023-04-06T22:13:18;102478.22;;;4.42;72.97
50364;BME280;36272;59.400;17.982;2023-04-06T22:18:20;102474.88;;;4.40;73.20
50364;BME280;36272;59.400;17.982;2023-04-06T22:23:22;102473.47;;;4.36;73.05
50364;BME280;36272;59.400;17.982;2023-04-06T22:28:24;102473.03;;;4.31;73.42
50364;BME280;36272;59.400;17.982;2023-04-06T22:33:26;102475.97;;;4.28;73.67
50364;BME280;36272;59.400;17.982;2023-04-06T22:38:28;102478.88;;;4.25;73.92
50364;BME280;36272;59.400;17.982;2023-04-06T22:43:30;102468.69;;;4.20;73.93
50364;BME280;36272;59.400;17.982;2023-04-06T22:48:32;102479.44;;;4.19;74.20
50364;BME280;36272;59.400;17.982;2023-04-06T22:53:33;102469.41;;;4.12;74.59
50364;BME280;36272;59.400;17.982;2023-04-06T22:58:35;102475.09;;;4.08;74.77
50364;BME280;36272;59.400;17.982;2023-04-06T23:03:36;102485.13;;;4.04;75.00
50364;BME280;36272;59.400;17.982;2023-04-06T23:08:38;102467.56;;;4.03;74.93
50364;BME280;36272;59.400;17.982;2023-04-06T23:13:40;102466.59;;;4.04;74.98
50364;BME280;36272;59.400;17.982;2023-04-06T23:18:41;102467.56;;;4.03;75.10
50364;BME280;36272;59.400;17.982;2023-04-06T23:23:43;102472.84;;;4.03;75.12
50364;BME280;36272;59.400;17.982;2023-04-06T23:28:45;102469.25;;;4.04;75.16
50364;BME280;36272;59.400;17.982;2023-04-06T23:33:47;102474.81;;;4.01;75.12
50364;BME280;36272;59.400;17.982;2023-04-06T23:38:49;102464.47;;;3.98;75.38
50364;BME280;36272;59.400;17.982;2023-04-06T23:43:51;102464.75;;;3.95;75.35
50364;BME280;36272;59.400;17.982;2023-04-06T23:48:53;102466.25;;;3.87;75.67
50364;BME280;36272;59.400;17.982;2023-04-06T23:53:54;102458.72;;;3.83;75.85
50364;BME280;36272;59.400;17.982;2023-04-06T23:58:56;102458.03;;;3.81;76.08
